sensor_id;sensor_type;location;lat;lon;timestamp;P1;durP1;ratioP1;P2;durP2;ratioP2
4021;SDS011;2025;48.260;16.432;2023-03-01T00:01:08;17.67;;;8.75;;
4021;SDS011;2025;48.260;16.432;2023-03-01T00:03:37;22.90;;;9.98;;
4021;SDS011;2025;48.260;16.432;2023-03-01T00:06:04;20.23;;;8.57;;
4021;SDS011;2025;48.260;16.432;2023-03-01T00:08:32;19.75;;;8.40;;
4021;SDS011;2025;48.260;16.432;2023-03-01T00:11:02;17.25;;;6.90;;
4021;SDS011;2025;48.260;16.432;2023-03-01T00:13:30;19.52;;;7.68;;
4021;SDS011;2025;48.260;16.432;2023-03-01T00:18:23;19.55;;;8.88;;
4021;SDS011;2025;48.260;16.432;2023-03-01T00:20:53;19.42;;;8.27;;
4021;SDS011;2025;48.260;16.432;2023-03-01T00:23:23;21.13;;;8.75;;
4021;SDS011;2025;48.260;16.432;2023-03-01T00:25:53;21.00;;;8.65;;
4021;SDS011;2025;48.260;16.432;2023-03-01T00:28:30;19.48;;;8.52;;
4021;SDS011;2025;48.260;16.432;2023-03-01T00:31:13;18.35;;;8.98;;
4021;SDS011;2025;48.260;16.432;2023-03-01T00:33:48;15.82;;;8.02;;
4021;SDS011;2025;48.260;16.432;2023-03-01T00:36:29;18.25;;;8.63;;
4021;SDS011;2025;48.260;16.432;2023-03-01T00:39:12;18.83;;;7.82;;
4021;SDS011;2025;48.260;16.432;2023-03-01T00:41:44;19.42;;;8.38;;
4021;SDS011;2025;48.260;16.432;2023-03-01T00:46:40;15.05;;;7.28;;
4021;SDS011;2025;48.260;16.432;2023-03-01T00:49:07;19.38;;;8.05;;
4021;SDS011;2025;48.260;16.432;2023-03-01T00:51:34;21.02;;;7.88;;
4021;SDS011;2025;48.260;16.432;2023-03-01T00:54:01;21.27;;;8.27;;
4021;SDS011;2025;48.260;16.432;2023-03-01T00:56:29;23.50;;;9.35;;
4021;SDS011;2025;48.260;16.432;2023-03-01T00:58:56;18.58;;;7.47;;
4021;SDS011;2025;48.260;16.432;2023-03-01T01:01:25;19.38;;;7.68;;
4021;SDS011;2025;48.260;16.432;2023-03-01T01:03:56;20.42;;;8.00;;
4021;SDS011;2025;48.260;16.432;2023-03-01T01:06:25;18.10;;;8.98;;
4021;SDS011;2025;48.260;16.432;2023-03-01T01:08:54;18.08;;;7.90;;
4021;SDS011;2025;48.260;16.432;2023-03-01T01:11:22;19.05;;;7.80;;
4021;SDS011;2025;48.260;16.432;2023-03-01T01:13:50;17.92;;;8.10;;
4021;SDS011;2025;48.260;16.432;2023-03-01T01:16:18;18.27;;;8.40;;
4021;SDS011;2025;48.260;16.432;2023-03-01T01:18:48;20.85;;;9.10;;
4021;SDS011;2025;48.260;16.432;2023-03-01T01:21:16;18.48;;;8.05;;
4021;SDS011;2025;48.260;16.432;2023-03-01T01:23:44;20.35;;;7.53;;
4021;SDS011;2025;48.260;16.432;2023-03-01T01:26:13;18.00;;;8.32;;
4021;SDS011;2025;48.260;16.432;2023-03-01T01:28:41;17.90;;;8.48;;
4021;SDS011;2025;48.260;16.432;2023-03-01T01:31:07;17.90;;;7.95;;
4021;SDS011;2025;48.260;16.432;2023-03-01T01:36:04;18.42;;;8.65;;
4021;SDS011;2025;48.260;16.432;2023-03-01T01:38:32;27.20;;;8.77;;
4021;SDS011;2025;48.260;16.432;2023-03-01T01:40:59;20.92;;;9.20;;
4021;SDS011;2025;48.260;16.432;2023-03-01T01:43:27;18.88;;;9.48;;
4021;SDS011;2025;48.260;16.432;2023-03-01T01:45:55;18.52;;;8.52;;
4021;SDS011;2025;48.260;16.432;2023-03-01T01:48:24;18.27;;;6.95;;
4021;SDS011;2025;48.260;16.432;2023-03-01T01:51:09;22.50;;;9.13;;
4021;SDS011;2025;48.260;16.432;2023-03-01T01:53:39;18.67;;;7.70;;
4021;SDS011;2025;48.260;16.432;2023-03-01T01:56:07;24.33;;;8.43;;
4021;SDS011;2025;48.260;16.432;2023-03-01T01:58:37;22.15;;;9.40;;
4021;SDS011;2025;48.260;16.432;2023-03-01T02:01:05;23.65;;;8.75;;
4021;SDS011;2025;48.260;16.432;2023-03-01T02:03:33;21.80;;;7.88;;
4021;SDS011;2025;48.260;16.432;2023-03-01T02:06:13;21.63;;;8.43;;
4021;SDS011;2025;48.260;16.432;2023-03-01T02:08:45;24.02;;;9.18;;
4021;SDS011;2025;48.260;16.432;2023-03-01T02:11:15;18.45;;;9.57;;
4021;SDS011;2025;48.260;16.432;2023-03-01T02:13:42;21.75;;;9.48;;
4021;SDS011;2025;48.260;16.432;2023-03-01T02:16:11;20.08;;;8.82;;
4021;SDS011;2025;48.260;16.432;2023-03-01T02:18:41;21.75;;;9.13;;
4021;SDS011;2025;48.260;16.432;2023-03-01T02:21:14;21.48;;;8.68;;
4021;SDS011;2025;48.260;16.432;2023-03-01T02:23:52;22.58;;;8.63;;
4021;SDS011;2025;48.260;16.432;2023-03-01T02:26:23;25.90;;;9.52;;
4021;SDS011;2025;48.260;16.432;2023-03-01T02:28:58;24.73;;;9.13;;
4021;SDS011;2025;48.260;16.432;2023-03-01T02:31:25;23.65;;;8.68;;
4021;SDS011;2025;48.260;16.432;2023-03-01T02:34:08;19.25;;;9.73;;
4021;SDS011;2025;48.260;16.432;2023-03-01T02:36:37;21.95;;;8.55;;
4021;SDS011;2025;48.260;16.432;2023-03-01T02:39:07;23.73;;;10.25;;
4021;SDS011;2025;48.260;16.432;2023-03-01T02:41:41;26.38;;;9.25;;
4021;SDS011;2025;48.260;16.432;2023-03-01T02:44:11;21.90;;;8.82;;
4021;SDS011;2025;48.260;16.432;2023-03-01T02:46:42;26.58;;;10.23;;
4021;SDS011;2025;48.260;16.432;2023-03-01T02:49:19;22.42;;;9.80;;
4021;SDS011;2025;48.260;16.432;2023-03-01T02:51:52;23.52;;;10.45;;
4021;SDS011;2025;48.260;16.432;2023-03-01T02:54:33;17.80;;;8.13;;
4021;SDS011;2025;48.260;16.432;2023-03-01T02:57:06;26.58;;;11.60;;
4021;SDS011;2025;48.260;16.432;2023-03-01T02:59:35;24.42;;;11.13;;
4021;SDS011;2025;48.260;16.432;2023-03-01T03:02:05;23.65;;;10.18;;
4021;SDS011;2025;48.260;16.432;2023-03-01T03:04:32;25.52;;;11.68;;
4021;SDS011;2025;48.260;16.432;2023-03-01T03:09:26;24.05;;;10.85;;
4021;SDS011;2025;48.260;16.432;2023-03-01T03:11:53;24.13;;;11.38;;
4021;SDS011;2025;48.260;16.432;2023-03-01T03:16:49;28.13;;;10.50;;
4021;SDS011;2025;48.260;16.432;2023-03-01T03:19:16;27.48;;;11.10;;
4021;SDS011;2025;48.260;16.432;2023-03-01T03:21:45;23.60;;;11.88;;
4021;SDS011;2025;48.260;16.432;2023-03-01T03:24:12;30.08;;;12.73;;
4021;SDS011;2025;48.260;16.432;2023-03-01T03:29:06;23.80;;;10.15;;
4021;SDS011;2025;48.260;16.432;2023-03-01T03:34:01;27.00;;;10.73;;
4021;SDS011;2025;48.260;16.432;2023-03-01T03:36:28;26.60;;;10.35;;
4021;SDS011;2025;48.260;16.432;2023-03-01T03:41:22;27.85;;;12.55;;
4021;SDS011;2025;48.260;16.432;2023-03-01T03:46:15;25.60;;;11.30;;
4021;SDS011;2025;48.260;16.432;2023-03-01T03:51:11;24.42;;;9.18;;
4021;SDS011;2025;48.260;16.432;2023-03-01T03:53:38;29.38;;;10.23;;
4021;SDS011;2025;48.260;16.432;2023-03-01T03:56:05;26.60;;;10.77;;
4021;SDS011;2025;48.260;16.432;2023-03-01T03:58:33;34.35;;;12.55;;
4021;SDS011;2025;48.260;16.432;2023-03-01T04:01:00;26.48;;;11.43;;
4021;SDS011;2025;48.260;16.432;2023-03-01T04:03:27;25.05;;;10.88;;
4021;SDS011;2025;48.260;16.432;2023-03-01T04:05:56;26.67;;;11.25;;
4021;SDS011;2025;48.260;16.432;2023-03-01T04:08:25;29.15;;;10.95;;
4021;SDS011;2025;48.260;16.432;2023-03-01T04:10:56;32.03;;;11.45;;
4021;SDS011;2025;48.260;16.432;2023-03-01T04:13:24;29.55;;;12.10;;
4021;SDS011;2025;48.260;16.432;2023-03-01T04:15:52;27.40;;;12.23;;
4021;SDS011;2025;48.260;16.432;2023-03-01T04:18:21;29.75;;;12.27;;
4021;SDS011;2025;48.260;16.432;2023-03-01T04:20:49;28.52;;;11.35;;
4021;SDS011;2025;48.260;16.432;2023-03-01T04:23:17;26.23;;;11.80;;
4021;SDS011;2025;48.260;16.432;2023-03-01T04:25:48;27.98;;;11.35;;
4021;SDS011;2025;48.260;16.432;2023-03-01T04:28:19;25.92;;;11.68;;
4021;SDS011;2025;48.260;16.432;2023-03-01T04:30:46;28.67;;;11.95;;
4021;SDS011;2025;48.260;16.432;2023-03-01T04:35:39;22.48;;;11.10;;
4021;SDS011;2025;48.260;16.432;2023-03-01T04:40:33;22.63;;;9.75;;
4021;SDS011;2025;48.260;16.432;2023-03-01T04:43:02;26.25;;;11.57;;
4021;SDS011;2025;48.260;16.432;2023-03-01T04:45:31;25.85;;;11.18;;
4021;SDS011;2025;48.260;16.432;2023-03-01T04:47:59;26.13;;;10.95;;
4021;SDS011;2025;48.260;16.432;2023-03-01T04:52:53;24.15;;;9.98;;
4021;SDS011;2025;48.260;16.432;2023-03-01T04:55:23;31.20;;;11.57;;
4021;SDS011;2025;48.260;16.432;2023-03-01T04:57:51;26.10;;;11.88;;
4021;SDS011;2025;48.260;16.432;2023-03-01T05:00:21;26.75;;;10.82;;
4021;SDS011;2025;48.260;16.432;2023-03-01T05:02:49;31.15;;;10.85;;
4021;SDS011;2025;48.260;16.432;2023-03-01T05:05:20;26.70;;;12.25;;
4021;SDS011;2025;48.260;16.432;2023-03-01T05:07:51;24.98;;;10.13;;
4021;SDS011;2025;48.260;16.432;2023-03-01T05:10:21;27.63;;;11.45;;
4021;SDS011;2025;48.260;16.432;2023-03-01T05:12:49;27.75;;;12.05;;
4021;SDS011;2025;48.260;16.432;2023-03-01T05:15:17;27.13;;;11.52;;
4021;SDS011;2025;48.260;16.432;2023-03-01T05:17:48;30.70;;;11.65;;
4021;SDS011;2025;48.260;16.432;2023-03-01T05:20:15;26.75;;;11.90;;
4021;SDS011;2025;48.260;16.432;2023-03-01T05:22:42;23.80;;;9.63;;
4021;SDS011;2025;48.260;16.432;2023-03-01T05:25:09;25.63;;;10.35;;
4021;SDS011;2025;48.260;16.432;2023-03-01T05:27:39;27.30;;;12.13;;
4021;SDS011;2025;48.260;16.432;2023-03-01T05:30:06;30.60;;;12.77;;
4021;SDS011;2025;48.260;16.432;2023-03-01T05:32:40;21.73;;;10.13;;
4021;SDS011;2025;48.260;16.432;2023-03-01T05:35:11;29.33;;;11.65;;
4021;SDS011;2025;48.260;16.432;2023-03-01T05:37:40;27.63;;;10.93;;
4021;SDS011;2025;48.260;16.432;2023-03-01T05:40:09;24.83;;;10.32;;
4021;SDS011;2025;48.260;16.432;2023-03-01T05:42:41;27.23;;;12.25;;
4021;SDS011;2025;48.260;16.432;2023-03-01T05:45:12;25.95;;;10.10;;
4021;SDS011;2025;48.260;16.432;2023-03-01T05:47:40;26.02;;;10.65;;
4021;SDS011;2025;48.260;16.432;2023-03-01T05:50:14;27.35;;;10.45;;
4021;SDS011;2025;48.260;16.432;2023-03-01T05:52:44;25.75;;;11.80;;
4021;SDS011;2025;48.260;16.432;2023-03-01T05:55:13;22.75;;;11.30;;
4021;SDS011;2025;48.260;16.432;2023-03-01T05:57:41;23.65;;;10.25;;
4021;SDS011;2025;48.260;16.432;2023-03-01T06:02:35;25.50;;;9.48;;
4021;SDS011;2025;48.260;16.432;2023-03-01T06:05:03;31.30;;;10.98;;
4021;SDS011;2025;48.260;16.432;2023-03-01T06:07:32;25.02;;;9.75;;
4021;SDS011;2025;48.260;16.432;2023-03-01T06:10:00;22.27;;;11.07;;
4021;SDS011;2025;48.260;16.432;2023-03-01T06:12:29;27.83;;;11.77;;
4021;SDS011;2025;48.260;16.432;2023-03-01T06:14:57;29.73;;;11.65;;
4021;SDS011;2025;48.260;16.432;2023-03-01T06:19:50;23.00;;;9.38;;
4021;SDS011;2025;48.260;16.432;2023-03-01T06:24:45;26.73;;;10.55;;
4021;SDS011;2025;48.260;16.432;2023-03-01T06:27:12;24.00;;;10.48;;
4021;SDS011;2025;48.260;16.432;2023-03-01T06:29:39;25.17;;;10.27;;
4021;SDS011;2025;48.260;16.432;2023-03-01T06:32:06;28.75;;;11.63;;
4021;SDS011;2025;48.260;16.432;2023-03-01T06:34:34;27.52;;;11.65;;
4021;SDS011;2025;48.260;16.432;2023-03-01T06:39:30;21.33;;;9.20;;
4021;SDS011;2025;48.260;16.432;2023-03-01T06:41:59;27.15;;;10.10;;
4021;SDS011;2025;48.260;16.432;2023-03-01T06:44:26;25.08;;;11.35;;
4021;SDS011;2025;48.260;16.432;2023-03-01T06:46:53;25.05;;;10.30;;
4021;SDS011;2025;48.260;16.432;2023-03-01T06:49:20;24.80;;;11.05;;
4021;SDS011;2025;48.260;16.432;2023-03-01T06:51:47;29.25;;;11.13;;
4021;SDS011;2025;48.260;16.432;2023-03-01T06:54:14;24.73;;;11.55;;
4021;SDS011;2025;48.260;16.432;2023-03-01T06:56:42;28.35;;;11.35;;
4021;SDS011;2025;48.260;16.432;2023-03-01T06:59:11;27.08;;;12.45;;
4021;SDS011;2025;48.260;16.432;2023-03-01T07:01:38;27.75;;;11.30;;
4021;SDS011;2025;48.260;16.432;2023-03-01T07:04:05;24.77;;;11.68;;
4021;SDS011;2025;48.260;16.432;2023-03-01T07:06:32;26.48;;;11.35;;
4021;SDS011;2025;48.260;16.432;2023-03-01T07:08:59;29.08;;;11.27;;
4021;SDS011;2025;48.260;16.432;2023-03-01T07:11:25;25.60;;;11.25;;
4021;SDS011;2025;48.260;16.432;2023-03-01T07:13:52;28.33;;;11.55;;
4021;SDS011;2025;48.260;16.432;2023-03-01T07:16:21;25.95;;;11.10;;
4021;SDS011;2025;48.260;16.432;2023-03-01T07:18:48;26.20;;;12.15;;
4021;SDS011;2025;48.260;16.432;2023-03-01T07:21:15;25.63;;;10.13;;
4021;SDS011;2025;48.260;16.432;2023-03-01T07:23:42;26.63;;;10.20;;
4021;SDS011;2025;48.260;16.432;2023-03-01T07:26:09;29.17;;;11.07;;
4021;SDS011;2025;48.260;16.432;2023-03-01T07:31:04;26.38;;;10.15;;
4021;SDS011;2025;48.260;16.432;2023-03-01T07:33:33;28.73;;;11.43;;
4021;SDS011;2025;48.260;16.432;2023-03-01T07:36:00;28.00;;;11.57;;
4021;SDS011;2025;48.260;16.432;2023-03-01T07:38:29;27.63;;;11.23;;
4021;SDS011;2025;48.260;16.432;2023-03-01T07:40:57;28.27;;;12.32;;
4021;SDS011;2025;48.260;16.432;2023-03-01T07:43:25;33.80;;;12.48;;
4021;SDS011;2025;48.260;16.432;2023-03-01T07:45:52;27.30;;;11.35;;
4021;SDS011;2025;48.260;16.432;2023-03-01T07:48:19;27.90;;;13.43;;
4021;SDS011;2025;48.260;16.432;2023-03-01T07:50:47;25.08;;;11.18;;
4021;SDS011;2025;48.260;16.432;2023-03-01T07:53:14;27.35;;;12.77;;
4021;SDS011;2025;48.260;16.432;2023-03-01T07:58:07;28.13;;;12.68;;
4021;SDS011;2025;48.260;16.432;2023-03-01T08:00:34;30.67;;;12.20;;
4021;SDS011;2025;48.260;16.432;2023-03-01T08:03:01;27.38;;;12.02;;
4021;SDS011;2025;48.260;16.432;2023-03-01T08:05:28;26.05;;;12.23;;
4021;SDS011;2025;48.260;16.432;2023-03-01T08:07:57;29.80;;;12.70;;
4021;SDS011;2025;48.260;16.432;2023-03-01T08:10:24;29.38;;;12.32;;
4021;SDS011;2025;48.260;16.432;2023-03-01T08:12:51;26.75;;;11.68;;
4021;SDS011;2025;48.260;16.432;2023-03-01T08:15:19;27.63;;;13.45;;
4021;SDS011;2025;48.260;16.432;2023-03-01T08:17:46;28.35;;;11.63;;
4021;SDS011;2025;48.260;16.432;2023-03-01T08:20:16;27.20;;;12.77;;
4021;SDS011;2025;48.260;16.432;2023-03-01T08:22:43;28.38;;;10.25;;
4021;SDS011;2025;48.260;16.432;2023-03-01T08:25:11;27.77;;;11.93;;
4021;SDS011;2025;48.260;16.432;2023-03-01T08:27:38;31.98;;;11.95;;
4021;SDS011;2025;48.260;16.432;2023-03-01T08:30:06;26.95;;;12.23;;
4021;SDS011;2025;48.260;16.432;2023-03-01T08:32:37;30.77;;;11.77;;
4021;SDS011;2025;48.260;16.432;2023-03-01T08:35:05;27.45;;;11.02;;
4021;SDS011;2025;48.260;16.432;2023-03-01T08:37:32;29.92;;;12.98;;
4021;SDS011;2025;48.260;16.432;2023-03-01T08:39:59;32.03;;;12.93;;
4021;SDS011;2025;48.260;16.432;2023-03-01T08:42:28;31.17;;;13.77;;
4021;SDS011;2025;48.260;16.432;2023-03-01T08:44:55;29.75;;;13.43;;
4021;SDS011;2025;48.260;16.432;2023-03-01T08:47:22;29.52;;;12.68;;
4021;SDS011;2025;48.260;16.432;2023-03-01T08:49:49;27.98;;;12.43;;
4021;SDS011;2025;48.260;16.432;2023-03-01T08:52:16;25.60;;;11.73;;
4021;SDS011;2025;48.260;16.432;2023-03-01T08:54:44;29.67;;;11.65;;
4021;SDS011;2025;48.260;16.432;2023-03-01T08:57:11;24.25;;;12.88;;
4021;SDS011;2025;48.260;16.432;2023-03-01T08:59:40;28.50;;;13.05;;
4021;SDS011;2025;48.260;16.432;2023-03-01T09:02:10;25.77;;;12.45;;
4021;SDS011;2025;48.260;16.432;2023-03-01T09:04:39;26.30;;;12.23;;
4021;SDS011;2025;48.260;16.432;2023-03-01T09:07:07;26.60;;;12.40;;
4021;SDS011;2025;48.260;16.432;2023-03-01T09:09:34;28.17;;;13.40;;
4021;SDS011;2025;48.260;16.432;2023-03-01T09:12:02;27.35;;;12.23;;
4021;SDS011;2025;48.260;16.432;2023-03-01T09:14:30;25.63;;;11.27;;
4021;SDS011;2025;48.260;16.432;2023-03-01T09:16:58;26.90;;;13.18;;
4021;SDS011;2025;48.260;16.432;2023-03-01T09:19:28;30.23;;;12.80;;
4021;SDS011;2025;48.260;16.432;2023-03-01T09:21:55;26.98;;;12.30;;
4021;SDS011;2025;48.260;16.432;2023-03-01T09:24:23;26.08;;;12.48;;
4021;SDS011;2025;48.260;16.432;2023-03-01T09:26:53;30.48;;;12.68;;
4021;SDS011;2025;48.260;16.432;2023-03-01T09:29:21;29.38;;;11.30;;
4021;SDS011;2025;48.260;16.432;2023-03-01T09:31:48;27.80;;;13.85;;
4021;SDS011;2025;48.260;16.432;2023-03-01T09:34:17;30.65;;;13.30;;
4021;SDS011;2025;48.260;16.432;2023-03-01T09:36:48;24.92;;;11.00;;
4021;SDS011;2025;48.260;16.432;2023-03-01T09:39:16;28.85;;;12.88;;
4021;SDS011;2025;48.260;16.432;2023-03-01T09:41:46;24.95;;;11.77;;
4021;SDS011;2025;48.260;16.432;2023-03-01T09:44:21;21.30;;;11.27;;
4021;SDS011;2025;48.260;16.432;2023-03-01T09:46:56;27.63;;;12.27;;
4021;SDS011;2025;48.260;16.432;2023-03-01T09:49:26;26.38;;;11.98;;
4021;SDS011;2025;48.260;16.432;2023-03-01T09:51:58;28.00;;;12.93;;
4021;SDS011;2025;48.260;16.432;2023-03-01T09:54:30;26.00;;;11.60;;
4021;SDS011;2025;48.260;16.432;2023-03-01T09:59:52;25.00;;;11.52;;
4021;SDS011;2025;48.260;16.432;2023-03-01T10:02:38;26.85;;;11.05;;
4021;SDS011;2025;48.260;16.432;2023-03-01T10:05:26;24.00;;;11.13;;
4021;SDS011;2025;48.260;16.432;2023-03-01T10:13:34;23.55;;;10.23;;
4021;SDS011;2025;48.260;16.432;2023-03-01T10:16:14;22.77;;;10.15;;
4021;SDS011;2025;48.260;16.432;2023-03-01T10:18:47;22.30;;;11.27;;
4021;SDS011;2025;48.260;16.432;2023-03-01T10:21:21;22.10;;;10.10;;
4021;SDS011;2025;48.260;16.432;2023-03-01T10:23:49;21.83;;;10.48;;
4021;SDS011;2025;48.260;16.432;2023-03-01T10:26:23;23.65;;;9.93;;
4021;SDS011;2025;48.260;16.432;2023-03-01T10:29:03;21.58;;;10.23;;
4021;SDS011;2025;48.260;16.432;2023-03-01T10:31:36;21.38;;;10.27;;
4021;SDS011;2025;48.260;16.432;2023-03-01T10:34:10;20.85;;;9.23;;
4021;SDS011;2025;48.260;16.432;2023-03-01T10:36:41;17.90;;;8.38;;
4021;SDS011;2025;48.260;16.432;2023-03-01T10:39:13;22.30;;;10.65;;
4021;SDS011;2025;48.260;16.432;2023-03-01T10:41:51;19.95;;;8.52;;
4021;SDS011;2025;48.260;16.432;2023-03-01T10:47:04;21.60;;;9.52;;
4021;SDS011;2025;48.260;16.432;2023-03-01T10:49:31;20.90;;;9.80;;
4021;SDS011;2025;48.260;16.432;2023-03-01T10:52:11;19.38;;;8.95;;
4021;SDS011;2025;48.260;16.432;2023-03-01T10:54:50;19.27;;;9.10;;
4021;SDS011;2025;48.260;16.432;2023-03-01T10:57:29;24.23;;;8.90;;
4021;SDS011;2025;48.260;16.432;2023-03-01T11:00:16;25.48;;;11.57;;
4021;SDS011;2025;48.260;16.432;2023-03-01T11:02:50;23.52;;;10.20;;
4021;SDS011;2025;48.260;16.432;2023-03-01T11:05:30;18.20;;;9.38;;
4021;SDS011;2025;48.260;16.432;2023-03-01T11:08:01;19.70;;;9.23;;
4021;SDS011;2025;48.260;16.432;2023-03-01T11:10:30;19.40;;;9.50;;
4021;SDS011;2025;48.260;16.432;2023-03-01T11:13:06;17.92;;;9.50;;
4021;SDS011;2025;48.260;16.432;2023-03-01T11:15:34;19.42;;;9.13;;
4021;SDS011;2025;48.260;16.432;2023-03-01T11:18:02;18.27;;;8.70;;
4021;SDS011;2025;48.260;16.432;2023-03-01T11:20:29;20.58;;;10.07;;
4021;SDS011;2025;48.260;16.432;2023-03-01T11:23:01;20.27;;;9.85;;
4021;SDS011;2025;48.260;16.432;2023-03-01T11:25:33;21.60;;;10.65;;
4021;SDS011;2025;48.260;16.432;2023-03-01T11:28:03;18.38;;;9.43;;
4021;SDS011;2025;48.260;16.432;2023-03-01T11:30:33;19.73;;;10.27;;
4021;SDS011;2025;48.260;16.432;2023-03-01T11:33:08;20.75;;;9.65;;
4021;SDS011;2025;48.260;16.432;2023-03-01T11:35:45;16.55;;;9.32;;
4021;SDS011;2025;48.260;16.432;2023-03-01T11:38:21;16.77;;;8.55;;
4021;SDS011;2025;48.260;16.432;2023-03-01T11:40:51;16.52;;;8.32;;
4021;SDS011;2025;48.260;16.432;2023-03-01T11:43:28;17.63;;;9.02;;
4021;SDS011;2025;48.260;16.432;2023-03-01T11:46:20;18.48;;;8.35;;
4021;SDS011;2025;48.260;16.432;2023-03-01T11:49:16;16.65;;;7.68;;
4021;SDS011;2025;48.260;16.432;2023-03-01T11:51:59;17.90;;;7.88;;
4021;SDS011;2025;48.260;16.432;2023-03-01T11:54:38;16.42;;;8.13;;
4021;SDS011;2025;48.260;16.432;2023-03-01T11:57:20;17.92;;;8.25;;
4021;SDS011;2025;48.260;16.432;2023-03-01T12:00:08;17.95;;;8.30;;
4021;SDS011;2025;48.260;16.432;2023-03-01T12:08:16;14.60;;;7.03;;
4021;SDS011;2025;48.260;16.432;2023-03-01T12:10:51;16.30;;;7.75;;
4021;SDS011;2025;48.260;16.432;2023-03-01T12:13:41;15.95;;;8.07;;
4021;SDS011;2025;48.260;16.432;2023-03-01T12:16:36;19.27;;;8.27;;
4021;SDS011;2025;48.260;16.432;2023-03-01T12:19:30;16.73;;;7.50;;
4021;SDS011;2025;48.260;16.432;2023-03-01T12:25:01;15.88;;;7.43;;
4021;SDS011;2025;48.260;16.432;2023-03-01T12:27:44;14.45;;;6.93;;
4021;SDS011;2025;48.260;16.432;2023-03-01T12:30:31;15.38;;;7.88;;
4021;SDS011;2025;48.260;16.432;2023-03-01T12:33:19;19.27;;;8.27;;
4021;SDS011;2025;48.260;16.432;2023-03-01T12:35:54;16.60;;;7.85;;
4021;SDS011;2025;48.260;16.432;2023-03-01T12:38:45;14.90;;;7.38;;
4021;SDS011;2025;48.260;16.432;2023-03-01T12:41:21;20.20;;;8.75;;
4021;SDS011;2025;48.260;16.432;2023-03-01T12:44:04;17.33;;;8.10;;
4021;SDS011;2025;48.260;16.432;2023-03-01T12:46:47;17.02;;;8.75;;
4021;SDS011;2025;48.260;16.432;2023-03-01T12:49:26;19.45;;;8.10;;
4021;SDS011;2025;48.260;16.432;2023-03-01T12:51:59;16.08;;;7.95;;
4021;SDS011;2025;48.260;16.432;2023-03-01T12:54:28;16.65;;;8.27;;
4021;SDS011;2025;48.260;16.432;2023-03-01T12:56:59;17.13;;;7.95;;
4021;SDS011;2025;48.260;16.432;2023-03-01T12:59:37;18.67;;;7.35;;
4021;SDS011;2025;48.260;16.432;2023-03-01T13:02:10;18.33;;;9.30;;
4021;SDS011;2025;48.260;16.432;2023-03-01T13:04:51;17.08;;;8.15;;
4021;SDS011;2025;48.260;16.432;2023-03-01T13:07:29;17.85;;;8.85;;
4021;SDS011;2025;48.260;16.432;2023-03-01T13:10:04;18.05;;;8.50;;
4021;SDS011;2025;48.260;16.432;2023-03-01T13:12:41;16.85;;;8.57;;
4021;SDS011;2025;48.260;16.432;2023-03-01T13:15:28;15.98;;;8.63;;
4021;SDS011;2025;48.260;16.432;2023-03-01T13:17:57;18.25;;;8.55;;
4021;SDS011;2025;48.260;16.432;2023-03-01T13:20:27;19.23;;;8.95;;
4021;SDS011;2025;48.260;16.432;2023-03-01T13:23:05;19.90;;;10.07;;
4021;SDS011;2025;48.260;16.432;2023-03-01T13:25:35;20.70;;;10.20;;
4021;SDS011;2025;48.260;16.432;2023-03-01T13:37:31;15.95;;;9.13;;
4021;SDS011;2025;48.260;16.432;2023-03-01T13:40:01;21.38;;;9.43;;
4021;SDS011;2025;48.260;16.432;2023-03-01T13:42:41;20.20;;;10.63;;
4021;SDS011;2025;48.260;16.432;2023-03-01T13:45:21;17.63;;;9.85;;
4021;SDS011;2025;48.260;16.432;2023-03-01T13:47:58;20.05;;;9.43;;
4021;SDS011;2025;48.260;16.432;2023-03-01T13:50:28;19.70;;;9.48;;
4021;SDS011;2025;48.260;16.432;2023-03-01T13:53:00;19.90;;;9.40;;
4021;SDS011;2025;48.260;16.432;2023-03-01T13:55:34;16.20;;;9.13;;
4021;SDS011;2025;48.260;16.432;2023-03-01T13:58:05;22.73;;;9.85;;
4021;SDS011;2025;48.260;16.432;2023-03-01T14:00:42;16.50;;;9.23;;
4021;SDS011;2025;48.260;16.432;2023-03-01T14:03:12;19.98;;;10.15;;
4021;SDS011;2025;48.260;16.432;2023-03-01T14:05:41;20.70;;;10.88;;
4021;SDS011;2025;48.260;16.432;2023-03-01T14:08:20;18.48;;;8.88;;
4021;SDS011;2025;48.260;16.432;2023-03-01T14:10:54;18.30;;;9.52;;
4021;SDS011;2025;48.260;16.432;2023-03-01T14:13:41;19.65;;;9.63;;
4021;SDS011;2025;48.260;16.432;2023-03-01T14:16:23;23.13;;;9.90;;
4021;SDS011;2025;48.260;16.432;2023-03-01T14:19:05;21.35;;;10.50;;
4021;SDS011;2025;48.260;16.432;2023-03-01T14:21:41;21.27;;;10.52;;
4021;SDS011;2025;48.260;16.432;2023-03-01T14:24:15;21.45;;;9.75;;
4021;SDS011;2025;48.260;16.432;2023-03-01T14:26:44;21.10;;;9.98;;
4021;SDS011;2025;48.260;16.432;2023-03-01T14:29:25;21.45;;;10.95;;
4021;SDS011;2025;48.260;16.432;2023-03-01T14:31:53;17.48;;;8.95;;
4021;SDS011;2025;48.260;16.432;2023-03-01T14:34:22;21.15;;;10.68;;
4021;SDS011;2025;48.260;16.432;2023-03-01T14:36:50;21.48;;;11.00;;
4021;SDS011;2025;48.260;16.432;2023-03-01T14:39:18;18.20;;;9.50;;
4021;SDS011;2025;48.260;16.432;2023-03-01T14:41:47;20.55;;;9.82;;
4021;SDS011;2025;48.260;16.432;2023-03-01T14:44:15;22.65;;;9.88;;
4021;SDS011;2025;48.260;16.432;2023-03-01T14:46:51;19.10;;;10.25;;
4021;SDS011;2025;48.260;16.432;2023-03-01T14:49:19;20.95;;;10.10;;
4021;SDS011;2025;48.260;16.432;2023-03-01T14:51:52;21.25;;;9.02;;
4021;SDS011;2025;48.260;16.432;2023-03-01T14:54:24;19.70;;;9.48;;
4021;SDS011;2025;48.260;16.432;2023-03-01T14:56:53;20.52;;;9.60;;
4021;SDS011;2025;48.260;16.432;2023-03-01T14:59:24;22.13;;;8.30;;
4021;SDS011;2025;48.260;16.432;2023-03-01T15:01:52;21.02;;;8.98;;
4021;SDS011;2025;48.260;16.432;2023-03-01T15:04:23;19.92;;;9.02;;
4021;SDS011;2025;48.260;16.432;2023-03-01T15:06:51;18.33;;;8.93;;
4021;SDS011;2025;48.260;16.432;2023-03-01T15:09:19;20.73;;;10.18;;
4021;SDS011;2025;48.260;16.432;2023-03-01T15:11:47;20.95;;;9.23;;
4021;SDS011;2025;48.260;16.432;2023-03-01T15:14:28;21.25;;;10.30;;
4021;SDS011;2025;48.260;16.432;2023-03-01T15:17:14;17.77;;;9.23;;
4021;SDS011;2025;48.260;16.432;2023-03-01T15:19:48;21.48;;;9.70;;
4021;SDS011;2025;48.260;16.432;2023-03-01T15:22:15;19.25;;;7.88;;
4021;SDS011;2025;48.260;16.432;2023-03-01T15:24:46;17.75;;;9.43;;
4021;SDS011;2025;48.260;16.432;2023-03-01T15:27:15;20.05;;;8.70;;
4021;SDS011;2025;48.260;16.432;2023-03-01T15:29:48;21.38;;;9.55;;
4021;SDS011;2025;48.260;16.432;2023-03-01T15:32:24;21.08;;;10.02;;
4021;SDS011;2025;48.260;16.432;2023-03-01T15:34:56;21.40;;;8.85;;
4021;SDS011;2025;48.260;16.432;2023-03-01T15:37:38;18.38;;;8.32;;
4021;SDS011;2025;48.260;16.432;2023-03-01T15:40:20;20.73;;;8.85;;
4021;SDS011;2025;48.260;16.432;2023-03-01T15:42:56;20.40;;;9.27;;
4021;SDS011;2025;48.260;16.432;2023-03-01T15:45:23;19.98;;;9.07;;
4021;SDS011;2025;48.260;16.432;2023-03-01T15:47:53;20.58;;;8.52;;
4021;SDS011;2025;48.260;16.432;2023-03-01T15:50:25;19.90;;;8.50;;
4021;SDS011;2025;48.260;16.432;2023-03-01T15:52:53;19.77;;;8.88;;
4021;SDS011;2025;48.260;16.432;2023-03-01T15:55:22;19.30;;;8.68;;
4021;SDS011;2025;48.260;16.432;2023-03-01T15:57:57;21.83;;;9.40;;
4021;SDS011;2025;48.260;16.432;2023-03-01T16:00:26;20.98;;;8.85;;
4021;SDS011;2025;48.260;16.432;2023-03-01T16:02:53;20.50;;;8.35;;
4021;SDS011;2025;48.260;16.432;2023-03-01T16:05:21;19.50;;;8.45;;
4021;SDS011;2025;48.260;16.432;2023-03-01T16:07:51;20.98;;;9.05;;
4021;SDS011;2025;48.260;16.432;2023-03-01T16:10:18;18.83;;;8.60;;
4021;SDS011;2025;48.260;16.432;2023-03-01T16:12:45;21.83;;;7.68;;
4021;SDS011;2025;48.260;16.432;2023-03-01T16:15:15;17.08;;;8.57;;
4021;SDS011;2025;48.260;16.432;2023-03-01T16:17:45;20.58;;;8.63;;
4021;SDS011;2025;48.260;16.432;2023-03-01T16:20:12;19.30;;;8.27;;